createdAt,value
2022-11-22T00:01:01.999Z,22.00
2022-11-22T00:06:04.316Z,22.70
2022-11-22T00:11:06.598Z,24.20
2022-11-22T00:16:08.876Z,24.40
2022-11-22T00:21:11.162Z,21.83
2022-11-22T00:26:13.498Z,21.80
2022-11-22T00:31:15.848Z,23.03
2022-11-22T00:36:18.252Z,24.23
2022-11-22T00:41:20.639Z,23.17
2022-11-22T00:46:22.984Z,23.90
2022-11-22T00:51:25.332Z,24.67
2022-11-22T00:56:27.706Z,23.63
2022-11-22T01:01:30.090Z,23.10
2022-11-22T01:06:32.519Z,23.93
2022-11-22T01:11:34.837Z,24.43
2022-11-22T01:16:37.150Z,22.33
2022-11-22T01:21:39.558Z,23.10
2022-11-22T01:26:41.890Z,24.20
2022-11-22T01:31:44.371Z,22.57
2022-11-22T01:36:46.740Z,28.30
2022-11-22T01:41:49.395Z,32.77
2022-11-22T01:46:55.666Z,25.03
2022-11-22T01:52:04.966Z,28.90
2022-11-22T01:57:16.715Z,24.30
2022-11-22T02:02:19.051Z,20.70
2022-11-22T02:07:35.492Z,21.13
2022-11-22T02:12:38.012Z,20.23
2022-11-22T02:17:40.280Z,18.83
2022-11-22T02:23:11.664Z,21.57
2022-11-22T02:28:14.079Z,19.80
2022-11-22T02:33:16.432Z,20.67
2022-11-22T02:38:24.922Z,21.87
2022-11-22T02:43:30.514Z,21.57
2022-11-22T02:48:33.172Z,18.47
2022-11-22T02:53:35.611Z,19.23
2022-11-22T02:58:38.356Z,19.43
2022-11-22T03:03:40.713Z,21.07
2022-11-22T03:08:44.351Z,21.23
2022-11-22T03:13:46.717Z,20.87
2022-11-22T03:18:49.203Z,23.17
2022-11-22T03:23:51.529Z,23.07
2022-11-22T03:28:53.913Z,21.53
2022-11-22T03:33:56.954Z,21.00
2022-11-22T03:38:59.452Z,24.00
2022-11-22T03:44:02.152Z,21.87
2022-11-22T03:49:04.444Z,24.00
2022-11-22T03:54:06.762Z,22.63
2022-11-22T03:59:09.184Z,22.60
2022-11-22T04:04:11.655Z,27.03
2022-11-22T04:09:14.129Z,24.17
2022-11-22T04:14:34.977Z,26.83
2022-11-22T04:19:37.271Z,22.63
2022-11-22T04:24:58.179Z,22.47
2022-11-22T04:30:00.496Z,24.90
2022-11-22T04:35:02.866Z,25.13
2022-11-22T04:40:05.733Z,23.73
2022-11-22T04:45:09.343Z,24.53
2022-11-22T04:50:30.259Z,21.70
2022-11-22T04:55:32.708Z,22.47
2022-11-22T05:00:35.434Z,24.30
2022-11-22T05:05:39.812Z,32.37
2022-11-22T05:10:57.514Z,23.70
2022-11-22T05:16:00.886Z,23.80
2022-11-22T05:21:08.655Z,24.67
2022-11-22T05:26:11.782Z,23.93
2022-11-22T05:31:16.892Z,30.90
2022-11-22T05:36:19.793Z,27.53
2022-11-22T05:41:22.329Z,27.13
2022-11-22T05:46:27.112Z,30.23
2022-11-22T05:51:34.114Z,29.03
2022-11-22T05:56:36.732Z,36.43
2022-11-22T06:01:39.147Z,31.77
2022-11-22T06:06:41.590Z,37.73
2022-11-22T06:11:46.510Z,32.50
2022-11-22T06:16:51.229Z,27.33
2022-11-22T06:21:53.716Z,35.07
2022-11-22T06:26:56.067Z,33.83
2022-11-22T06:32:03.149Z,32.33
2022-11-22T06:37:05.975Z,28.77
2022-11-22T06:42:08.324Z,33.67
2022-11-22T06:47:11.116Z,28.83
2022-11-22T06:52:13.487Z,30.63
2022-11-22T06:57:15.821Z,31.60
2022-11-22T07:02:18.125Z,29.37
2022-11-22T07:07:20.494Z,34.53
2022-11-22T07:12:22.904Z,34.23
2022-11-22T07:17:25.214Z,29.53
2022-11-22T07:22:28.688Z,28.07
2022-11-22T07:27:30.978Z,24.60
2022-11-22T07:32:33.331Z,25.77
2022-11-22T07:37:35.685Z,26.33
2022-11-22T07:42:38.248Z,25.00
2022-11-22T07:47:41.143Z,22.27
2022-11-22T07:52:43.622Z,26.83
2022-11-22T07:57:45.991Z,32.43
2022-11-22T08:02:48.331Z,23.90
2022-11-22T08:07:52.036Z,26.97
2022-11-22T08:12:54.386Z,27.17
2022-11-22T08:17:56.703Z,32.07
2022-11-22T08:22:59.108Z,30.50
2022-11-22T08:28:01.483Z,27.70
2022-11-22T08:33:03.875Z,28.40
2022-11-22T08:38:06.241Z,37.77
2022-11-22T08:43:10.766Z,29.10
2022-11-22T08:48:17.702Z,28.87
2022-11-22T08:53:24.624Z,31.43
2022-11-22T08:58:30.925Z,28.93
2022-11-22T09:03:35.546Z,31.07
2022-11-22T09:08:40.376Z,50.23
2022-11-22T09:13:46.533Z,45.50
2022-11-22T09:18:49.418Z,46.60
2022-11-22T09:23:53.586Z,34.23
2022-11-22T09:28:57.321Z,30.23
2022-11-22T09:33:59.721Z,41.27
2022-11-22T09:39:03.973Z,42.97
2022-11-22T09:44:30.708Z,44.40
2022-11-22T09:49:42.436Z,38.97
2022-11-22T09:55:04.246Z,39.87
2022-11-22T10:00:18.784Z,34.63
2022-11-22T10:05:28.437Z,42.00
2022-11-22T10:10:40.132Z,28.83
2022-11-22T10:16:26.080Z,29.17
2022-11-22T10:21:28.403Z,37.27
2022-11-22T10:26:33.021Z,46.73
2022-11-22T10:31:52.470Z,33.40
2022-11-22T10:37:00.527Z,31.33
2022-11-22T10:42:31.003Z,35.93
2022-11-22T10:47:49.994Z,35.10
2022-11-22T10:52:58.499Z,40.30
2022-11-22T10:58:38.580Z,24.97
2022-11-22T11:03:44.254Z,29.13
2022-11-22T11:09:47.676Z,57.77
2022-11-22T11:14:39.832Z,33.60
2022-11-22T11:19:44.453Z,40.80
2022-11-22T11:24:46.864Z,32.77
2022-11-22T11:30:04.625Z,33.47
2022-11-22T11:35:08.862Z,36.73
2022-11-22T11:40:32.119Z,40.03
2022-11-22T11:45:34.425Z,36.70
2022-11-22T11:50:36.804Z,41.67
2022-11-22T11:55:39.357Z,32.77
2022-11-22T12:00:41.770Z,57.97
2022-11-22T12:05:44.400Z,40.67
2022-11-22T12:11:09.093Z,37.83
2022-11-22T12:16:29.068Z,38.07
2022-11-22T12:21:56.200Z,33.13
2022-11-22T12:26:58.574Z,40.70
2022-11-22T12:32:07.478Z,54.20
2022-11-22T12:37:26.628Z,46.17
2022-11-22T12:42:32.176Z,35.00
2022-11-22T12:47:40.313Z,41.07
2022-11-22T12:52:48.689Z,32.37
2022-11-22T12:57:58.391Z,33.73
2022-11-22T13:03:20.106Z,35.80
2022-11-22T13:08:48.784Z,34.27
2022-11-22T13:14:03.239Z,37.10
2022-11-22T13:19:07.064Z,41.40
2022-11-22T13:24:39.109Z,45.47
2022-11-22T13:29:43.431Z,50.87
2022-11-22T13:35:40.343Z,52.27
2022-11-22T13:40:46.251Z,51.93
2022-11-22T13:45:50.405Z,57.93
2022-11-22T13:50:52.757Z,82.93
2022-11-22T13:56:15.922Z,60.23
2022-11-22T14:01:51.218Z,32.87
2022-11-22T14:07:03.092Z,47.10
2022-11-22T14:12:11.451Z,47.43
2022-11-22T14:17:13.712Z,86.80
2022-11-22T14:22:27.585Z,50.87
2022-11-22T14:28:06.415Z,54.93
2022-11-22T14:33:20.608Z,44.80
2022-11-22T14:38:28.470Z,42.50
2022-11-22T14:43:37.776Z,45.00
2022-11-22T14:49:13.165Z,43.57
2022-11-22T14:54:22.901Z,41.03
2022-11-22T15:00:06.399Z,44.23
2022-11-22T15:09:17.682Z,72.67
2022-11-22T15:10:58.432Z,55.63
2022-11-22T15:59:50.172Z,35.93
2022-11-22T16:06:09.567Z,39.63
2022-11-22T16:10:22.985Z,55.13
2022-11-22T16:15:36.426Z,43.23
2022-11-22T16:20:42.866Z,48.43
2022-11-22T16:25:50.346Z,35.83
2022-11-22T16:30:56.299Z,48.00
2022-11-22T16:36:00.950Z,58.13
2022-11-22T16:41:03.445Z,56.83
2022-11-22T16:46:06.053Z,50.97
2022-11-22T16:51:17.465Z,47.93
2022-11-22T16:56:22.900Z,62.33
2022-11-22T17:01:28.781Z,58.57
2022-11-22T17:06:32.630Z,54.60
2022-11-22T17:11:35.441Z,56.63
2022-11-22T17:16:37.764Z,48.73
2022-11-22T17:21:40.283Z,48.47
2022-11-22T17:26:42.642Z,51.40
2022-11-22T17:31:47.658Z,44.37
2022-11-22T17:36:50.029Z,50.03
2022-11-22T17:41:52.551Z,53.30
2022-11-22T17:46:55.206Z,44.10
2022-11-22T17:51:57.655Z,47.73
2022-11-22T17:57:00.004Z,49.80
2022-11-22T18:02:02.564Z,78.97
2022-11-22T18:07:05.066Z,72.97
2022-11-22T18:12:07.637Z,54.33
2022-11-22T18:17:10.199Z,54.87
2022-11-22T18:22:12.587Z,64.13
2022-11-22T18:27:14.933Z,51.80
2022-11-22T18:32:17.401Z,48.93
2022-11-22T18:37:19.752Z,52.67
2022-11-22T18:42:23.516Z,54.50
2022-11-22T18:47:25.922Z,75.10
2022-11-22T18:52:28.579Z,48.07
2022-11-22T18:57:30.997Z,49.07
2022-11-22T19:02:33.704Z,48.43
2022-11-22T19:07:36.093Z,47.87
2022-11-22T19:12:38.803Z,46.53
2022-11-22T19:17:41.152Z,42.73
2022-11-22T19:22:43.476Z,45.23
2022-11-22T19:27:48.547Z,45.13
2022-11-22T19:32:50.846Z,46.27
2022-11-22T19:37:53.154Z,44.53
2022-11-22T19:42:55.464Z,44.47
2022-11-22T19:47:57.764Z,42.87
2022-11-22T19:53:00.053Z,40.93
2022-11-22T19:58:03.138Z,42.73
2022-11-22T20:03:05.474Z,44.97
2022-11-22T20:08:08.064Z,43.30
2022-11-22T20:13:10.903Z,47.90
2022-11-22T20:18:13.239Z,44.87
2022-11-22T20:23:15.553Z,50.90
2022-11-22T20:28:17.911Z,47.80
2022-11-22T20:33:20.261Z,45.43
2022-11-22T20:38:22.624Z,53.40
2022-11-22T20:43:25.300Z,54.90
2022-11-22T20:48:27.805Z,45.37
2022-11-22T20:53:30.289Z,46.90
2022-11-22T20:58:32.769Z,48.23
2022-11-22T21:03:35.724Z,44.17
2022-11-22T21:08:38.260Z,42.33
2022-11-22T21:13:42.049Z,39.27
2022-11-22T21:18:44.378Z,42.43
2022-11-22T21:23:46.682Z,39.70
2022-11-22T21:28:49.142Z,41.90
2022-11-22T21:33:52.010Z,43.63
2022-11-22T21:38:54.322Z,41.20
2022-11-22T21:43:56.934Z,42.07
2022-11-22T21:48:59.442Z,40.17
2022-11-22T21:54:02.435Z,39.73
2022-11-22T21:59:04.896Z,38.77
2022-11-22T22:04:07.320Z,43.17
2022-11-22T22:09:09.658Z,41.23
2022-11-22T22:14:12.260Z,38.43
2022-11-22T22:19:15.529Z,41.50
2022-11-22T22:24:17.872Z,41.67
2022-11-22T22:29:20.274Z,41.77
2022-11-22T22:34:22.602Z,38.13
2022-11-22T22:39:24.916Z,41.50
2022-11-22T22:44:27.276Z,41.70
2022-11-22T22:49:29.936Z,40.87
2022-11-22T22:54:32.566Z,38.40
2022-11-22T22:59:34.901Z,38.83
2022-11-22T23:04:38.052Z,39.83
2022-11-22T23:09:40.487Z,38.80
2022-11-22T23:14:43.054Z,39.10
2022-11-22T23:19:45.368Z,38.47
2022-11-22T23:24:47.673Z,39.30
2022-11-22T23:29:49.992Z,40.30
2022-11-22T23:34:52.503Z,43.27
2022-11-22T23:39:54.881Z,42.73
2022-11-22T23:44:57.215Z,43.30
2022-11-22T23:49:59.541Z,40.57
2022-11-22T23:55:01.927Z,39.37
